Island Venture — WDG3765 — position and weather

sailwx.info

Track history (hours):
 
Tides and Currents Weather Stations Pressure Air Temp Water Temp Dewpoint Dewpoint Depression Visibility Wind Speed Wind Dir Waves Ship Positions

Island Venture

Owner: Island Tug and Barge, Seattle, WA. More information available from US FCC via Universal Licensing System and Coast Guard Vessel Documentation Center.

Last reported at 2016-Sep-29 14:15 UTC. Time now 2016-Sep-29 18:43 UTC.
Position N 47°13' W 123°04'.

Type: Tug. MMSI: 367529420.

Date/timePositionNaut miles runAvg speedWind from/ knotsBaromVisibWave heightAir tempDewpointWater temp
2016-Sep-29 14:15N 47°13' W 123°04'10 1.7
2016-Sep-29 08:25N 47°11' W 122°50'8 6.4
2016-Sep-29 07:10N 47°11' W 122°38'26 3.9
2016-Sep-29 00:34N 47°34' W 122°21'0 0.0
2016-Sep-28 21:33N 47°34' W 122°21'0 0.0
2016-Sep-28 19:34N 47°34' W 122°21'0 0.0
2016-Sep-28 16:34N 47°34' W 122°21'0 0.0
2016-Sep-28 15:34N 47°34' W 122°21'1 0.3
2016-Sep-28 12:33N 47°34' W 122°21'7 1.8
2016-Sep-28 08:34N 47°40' W 122°25'7 1.4
2016-Sep-28 03:34N 47°44' W 122°16'5 4.5
2016-Sep-28 02:33N 47°40' W 122°15'4 4.3
2016-Sep-28 01:33N 47°39' W 122°21'5 2.4
2016-Sep-27 23:34N 47°36' W 122°27'22 5.6
2016-Sep-27 19:33N 47°14' W 122°35'1 0.1
2016-Sep-27 14:33N 47°14' W 122°35'5 5.3
2016-Sep-27 13:34N 47°19' W 122°34'22 7.3
2016-Sep-27 10:34N 47°41' W 122°28'8 0.8
2016-Sep-27 00:34N 47°33' W 122°27'26 6.3
2016-Sep-26 20:27N 47°08' W 122°39'0 0.4
2016-Sep-26 19:32N 47°08' W 122°39'10 1.7
2016-Sep-26 13:31N 47°18' W 122°33'12 6.2
2016-Sep-26 11:34N 47°29' W 122°30'8 2.5
2016-Sep-26 08:34N 47°34' W 122°21'0 0.0
2016-Sep-26 02:33N 47°34' W 122°21'0 0.0
2016-Sep-26 01:34N 47°34' W 122°21'0 0.0
2016-Sep-26 00:34N 47°34' W 122°21'0 0.0
2016-Sep-25 21:33N 47°34' W 122°21'0 0.0
2016-Sep-25 17:34N 47°34' W 122°21'0 0.0
2016-Sep-25 16:34N 47°34' W 122°21'0 0.0
2016-Sep-25 15:34N 47°34' W 122°21'0 0.0
2016-Sep-25 14:33N 47°34' W 122°21'0 0.0
2016-Sep-25 12:34N 47°34' W 122°21'0 0.0
2016-Sep-25 11:33N 47°34' W 122°21'0 0.0
2016-Sep-25 10:34N 47°34' W 122°21'0 0.0
2016-Sep-25 09:33N 47°34' W 122°21'10 5.1
2016-Sep-25 07:34N 47°44' W 122°28'30 9.9
2016-Sep-25 04:30N 48°11' W 122°47'38 9.6
2016-Sep-25 00:33N 48°49' W 122°57'2110.4
2016-Sep-24 22:34N 49°02' W 123°20'10 9.7
2016-Sep-24 21:34N 49°12' W 123°21'10 5.1
2016-Sep-24 19:34N 49°19' W 123°10'6 6.2
2016-Sep-24 18:34N 49°16' W 123°18'8 8.1
2016-Sep-24 17:34N 49°08' W 123°20'5 5.2
2016-Sep-24 16:34N 49°03' W 123°18'12 5.9
2016-Sep-24 14:34N 48°55' W 123°05'15 7.6
2016-Sep-24 12:33N 48°46' W 122°47'11 5.4
2016-Sep-24 10:34N 48°35' W 122°45'5 4.8
2016-Sep-24 09:34N 48°30' W 122°44'42 6.9
2016-Sep-24 03:33N 47°50' W 122°27'8 8.4
2016-Sep-24 02:34N 47°42' W 122°27'7 7.3
2016-Sep-24 01:34N 47°35' W 122°22'2 1.8
2016-Sep-24 00:34N 47°34' W 122°21'0 0.0
2016-Sep-23 19:34N 47°34' W 122°21'1 0.4
2016-Sep-23 17:34N 47°34' W 122°21'0 0.0
2016-Sep-23 16:33N 47°34' W 122°21'0 0.0
2016-Sep-23 15:33N 47°34' W 122°21'1 0.3
2016-Sep-23 13:34N 47°34' W 122°21'0 0.0
2016-Sep-23 09:33N 47°34' W 122°21'14 4.5
2016-Sep-23 06:33N 47°22' W 122°32'13 6.4
2016-Sep-23 04:34N 47°10' W 122°38'2 2.1
2016-Sep-23 03:28N 47°08' W 122°39'0 0.0
2016-Sep-23 00:22N 47°08' W 122°39'1 0.7
2016-Sep-22 23:32N 47°09' W 122°38'8 2.7
2016-Sep-22 20:33N 47°16' W 122°33'21 2.6
2016-Sep-22 12:34N 47°36' W 122°22'9 0.3
2016-Sep-21 09:33N 47°29' W 122°30'5 4.6
2016-Sep-21 08:34N 47°33' W 122°27'5 1.8
2016-Sep-21 05:34N 47°38' W 122°26'17 8.3
2016-Sep-21 03:33N 47°54' W 122°20'8 7.7
2016-Sep-21 02:33N 48°01' W 122°13'2 0.2
2016-Sep-20 17:10N 48°01' W 122°11'1 0.5
2016-Sep-20 14:31N 48°01' W 122°13'3 2.8
2016-Sep-20 13:33N 47°59' W 122°15'1 0.4
2016-Sep-20 10:23N 47°59' W 122°17'3 1.9
2016-Sep-20 08:34N 47°56' W 122°20'4 3.5
2016-Sep-20 07:34N 47°53' W 122°22'4 4.4
2016-Sep-20 06:34N 47°49' W 122°24'24 6.1
2016-Sep-20 02:32N 47°25' W 122°32'11 3.5
2016-Sep-19 23:29N 47°14' W 122°35'2 0.3
2016-Sep-19 18:22N 47°16' W 122°34'6 1.6
2016-Sep-19 14:32N 47°17' W 122°25'  
Track history (hours):
 
Tides and Currents Weather Stations Pressure Air Temp Water Temp Dewpoint Dewpoint Depression Visibility Wind Speed Wind Dir Waves Ship Positions

Island Venture

Owner: Island Tug and Barge, Seattle, WA. More information available from US FCC via Universal Licensing System and Coast Guard Vessel Documentation Center.

Last reported at 2016-Sep-29 14:15 UTC. Time now 2016-Sep-29 18:43 UTC.
Position N 47°13' W 123°04'.

Type: Tug. MMSI: 367529420.

Date/timePositionNaut miles runAvg speedWind from/ knotsBaromVisibWave heightAir tempDewpointWater temp
2016-Sep-29 14:15N 47°13' W 123°04'10 1.7
2016-Sep-29 08:25N 47°11' W 122°50'8 6.4
2016-Sep-29 07:10N 47°11' W 122°38'26 3.9
2016-Sep-29 00:34N 47°34' W 122°21'0 0.0
2016-Sep-28 21:33N 47°34' W 122°21'0 0.0
2016-Sep-28 19:34N 47°34' W 122°21'0 0.0
2016-Sep-28 16:34N 47°34' W 122°21'0 0.0
2016-Sep-28 15:34N 47°34' W 122°21'1 0.3
2016-Sep-28 12:33N 47°34' W 122°21'7 1.8
2016-Sep-28 08:34N 47°40' W 122°25'7 1.4
2016-Sep-28 03:34N 47°44' W 122°16'5 4.5
2016-Sep-28 02:33N 47°40' W 122°15'4 4.3
2016-Sep-28 01:33N 47°39' W 122°21'5 2.4
2016-Sep-27 23:34N 47°36' W 122°27'22 5.6
2016-Sep-27 19:33N 47°14' W 122°35'1 0.1
2016-Sep-27 14:33N 47°14' W 122°35'5 5.3
2016-Sep-27 13:34N 47°19' W 122°34'22 7.3
2016-Sep-27 10:34N 47°41' W 122°28'8 0.8
2016-Sep-27 00:34N 47°33' W 122°27'26 6.3
2016-Sep-26 20:27N 47°08' W 122°39'0 0.4
2016-Sep-26 19:32N 47°08' W 122°39'10 1.7
2016-Sep-26 13:31N 47°18' W 122°33'12 6.2
2016-Sep-26 11:34N 47°29' W 122°30'8 2.5
2016-Sep-26 08:34N 47°34' W 122°21'0 0.0
2016-Sep-26 02:33N 47°34' W 122°21'0 0.0
2016-Sep-26 01:34N 47°34' W 122°21'0 0.0
2016-Sep-26 00:34N 47°34' W 122°21'0 0.0
2016-Sep-25 21:33N 47°34' W 122°21'0 0.0
2016-Sep-25 17:34N 47°34' W 122°21'0 0.0
2016-Sep-25 16:34N 47°34' W 122°21'0 0.0
2016-Sep-25 15:34N 47°34' W 122°21'0 0.0
2016-Sep-25 14:33N 47°34' W 122°21'0 0.0
2016-Sep-25 12:34N 47°34' W 122°21'0 0.0
2016-Sep-25 11:33N 47°34' W 122°21'0 0.0
2016-Sep-25 10:34N 47°34' W 122°21'0 0.0
2016-Sep-25 09:33N 47°34' W 122°21'10 5.1
2016-Sep-25 07:34N 47°44' W 122°28'30 9.9
2016-Sep-25 04:30N 48°11' W 122°47'38 9.6
2016-Sep-25 00:33N 48°49' W 122°57'2110.4
2016-Sep-24 22:34N 49°02' W 123°20'10 9.7
2016-Sep-24 21:34N 49°12' W 123°21'10 5.1
2016-Sep-24 19:34N 49°19' W 123°10'6 6.2
2016-Sep-24 18:34N 49°16' W 123°18'8 8.1
2016-Sep-24 17:34N 49°08' W 123°20'5 5.2
2016-Sep-24 16:34N 49°03' W 123°18'12 5.9
2016-Sep-24 14:34N 48°55' W 123°05'15 7.6
2016-Sep-24 12:33N 48°46' W 122°47'11 5.4
2016-Sep-24 10:34N 48°35' W 122°45'5 4.8
2016-Sep-24 09:34N 48°30' W 122°44'42 6.9
2016-Sep-24 03:33N 47°50' W 122°27'8 8.4
2016-Sep-24 02:34N 47°42' W 122°27'7 7.3
2016-Sep-24 01:34N 47°35' W 122°22'2 1.8
2016-Sep-24 00:34N 47°34' W 122°21'0 0.0
2016-Sep-23 19:34N 47°34' W 122°21'1 0.4
2016-Sep-23 17:34N 47°34' W 122°21'0 0.0
2016-Sep-23 16:33N 47°34' W 122°21'0 0.0
2016-Sep-23 15:33N 47°34' W 122°21'1 0.3
2016-Sep-23 13:34N 47°34' W 122°21'0 0.0
2016-Sep-23 09:33N 47°34' W 122°21'14 4.5
2016-Sep-23 06:33N 47°22' W 122°32'13 6.4
2016-Sep-23 04:34N 47°10' W 122°38'2 2.1
2016-Sep-23 03:28N 47°08' W 122°39'0 0.0
2016-Sep-23 00:22N 47°08' W 122°39'1 0.7
2016-Sep-22 23:32N 47°09' W 122°38'8 2.7
2016-Sep-22 20:33N 47°16' W 122°33'21 2.6
2016-Sep-22 12:34N 47°36' W 122°22'9 0.3
2016-Sep-21 09:33N 47°29' W 122°30'5 4.6
2016-Sep-21 08:34N 47°33' W 122°27'5 1.8
2016-Sep-21 05:34N 47°38' W 122°26'17 8.3
2016-Sep-21 03:33N 47°54' W 122°20'8 7.7
2016-Sep-21 02:33N 48°01' W 122°13'2 0.2
2016-Sep-20 17:10N 48°01' W 122°11'1 0.5
2016-Sep-20 14:31N 48°01' W 122°13'3 2.8
2016-Sep-20 13:33N 47°59' W 122°15'1 0.4
2016-Sep-20 10:23N 47°59' W 122°17'3 1.9
2016-Sep-20 08:34N 47°56' W 122°20'4 3.5
2016-Sep-20 07:34N 47°53' W 122°22'4 4.4
2016-Sep-20 06:34N 47°49' W 122°24'24 6.1
2016-Sep-20 02:32N 47°25' W 122°32'11 3.5
2016-Sep-19 23:29N 47°14' W 122°35'2 0.3
2016-Sep-19 18:22N 47°16' W 122°34'6 1.6
2016-Sep-19 14:32N 47°17' W 122°25'  

Dump ship's entire track history